createdAt,value
2019-05-09T00:01:30.736Z,10.90
2019-05-09T00:03:58.295Z,10.80
2019-05-09T00:06:25.878Z,10.90
2019-05-09T00:08:53.479Z,11.00
2019-05-09T00:11:21.051Z,10.90
2019-05-09T00:13:48.611Z,11.10
2019-05-09T00:16:16.180Z,11.10
2019-05-09T00:18:44.202Z,11.00
2019-05-09T00:21:14.835Z,11.10
2019-05-09T00:23:43.697Z,11.20
2019-05-09T00:26:10.000Z,11.10
2019-05-09T00:28:37.579Z,11.20
2019-05-09T00:31:05.150Z,11.20
2019-05-09T00:33:34.410Z,11.20
2019-05-09T00:36:00.323Z,11.20
2019-05-09T00:38:43.684Z,11.20
2019-05-09T00:41:14.026Z,11.10
2019-05-09T00:43:39.852Z,11.20
2019-05-09T00:46:10.019Z,11.10
2019-05-09T00:48:39.488Z,10.80
2019-05-09T00:51:08.106Z,10.60
2019-05-09T00:53:35.663Z,10.40
2019-05-09T00:56:04.487Z,10.20
2019-05-09T00:58:33.750Z,10.10
2019-05-09T01:01:01.319Z,10.00
2019-05-09T01:03:28.931Z,10.00
2019-05-09T01:05:56.498Z,10.00
2019-05-09T01:08:24.820Z,9.90
2019-05-09T01:11:08.221Z,10.00
2019-05-09T01:13:23.178Z,10.00
2019-05-09T01:15:50.859Z,10.00
2019-05-09T01:18:18.427Z,10.00
2019-05-09T01:20:45.992Z,10.10
2019-05-09T01:23:14.234Z,10.10
2019-05-09T01:25:43.489Z,10.00
2019-05-09T01:28:08.783Z,10.00
2019-05-09T01:30:36.347Z,10.00
2019-05-09T01:33:03.957Z,10.00
2019-05-09T01:35:33.853Z,10.10
2019-05-09T01:38:00.039Z,10.10
2019-05-09T01:40:27.623Z,10.30
2019-05-09T01:42:55.188Z,10.20
2019-05-09T01:45:23.696Z,10.10
2019-05-09T01:47:50.355Z,10.00
2019-05-09T01:50:17.913Z,10.20
2019-05-09T01:52:47.416Z,10.30
2019-05-09T01:55:14.991Z,10.20
2019-05-09T01:57:45.707Z,10.20
2019-05-09T02:00:10.169Z,10.10
2019-05-09T02:02:37.727Z,10.10
2019-05-09T02:05:05.283Z,10.20
2019-05-09T02:07:33.273Z,10.30
2019-05-09T02:10:00.547Z,10.30
2019-05-09T02:12:28.107Z,10.30
2019-05-09T02:15:00.111Z,10.40
2019-05-09T02:17:27.676Z,10.50
2019-05-09T02:19:55.245Z,10.60
2019-05-09T02:22:28.475Z,10.60
2019-05-09T02:24:56.800Z,10.60
2019-05-09T02:27:26.331Z,10.60
2019-05-09T02:29:54.447Z,10.60
2019-05-09T02:32:23.977Z,10.60
2019-05-09T02:34:49.104Z,10.50
2019-05-09T02:37:18.688Z,10.60
2019-05-09T02:39:44.281Z,10.60
2019-05-09T02:42:14.155Z,10.60
2019-05-09T02:44:40.376Z,10.60
2019-05-09T02:47:09.286Z,10.50
2019-05-09T02:49:38.859Z,10.50
2019-05-09T02:52:04.007Z,10.50
2019-05-09T02:54:31.565Z,10.50
2019-05-09T02:56:59.133Z,10.40
2019-05-09T02:59:29.682Z,10.50
2019-05-09T03:04:49.127Z,10.40
2019-05-09T03:07:18.875Z,10.30
2019-05-09T03:09:44.145Z,10.20
2019-05-09T03:12:26.065Z,10.20
2019-05-09T03:14:39.399Z,10.10
2019-05-09T03:17:08.828Z,10.10
2019-05-09T03:19:34.601Z,10.00
2019-05-09T03:22:08.738Z,9.90
2019-05-09T03:24:34.311Z,9.90
2019-05-09T03:27:14.659Z,9.80
2019-05-09T03:29:42.223Z,9.70
2019-05-09T03:32:09.825Z,9.60
2019-05-09T03:34:37.380Z,9.50
2019-05-09T03:37:04.940Z,9.50
2019-05-09T03:39:32.496Z,9.40
2019-05-09T03:42:00.059Z,9.30
2019-05-09T03:44:28.218Z,9.30
2019-05-09T03:47:08.262Z,9.20
2019-05-09T03:49:33.582Z,9.00
2019-05-09T03:52:01.147Z,8.90
2019-05-09T03:54:28.729Z,8.60
2019-05-09T03:57:07.713Z,8.50
2019-05-09T03:59:33.831Z,8.50
2019-05-09T04:02:01.395Z,8.40
2019-05-09T04:04:28.957Z,8.30
2019-05-09T04:06:58.084Z,8.30
2019-05-09T04:09:27.314Z,8.30
2019-05-09T04:11:53.614Z,8.30
2019-05-09T04:14:32.030Z,8.20
2019-05-09T04:16:59.587Z,8.20
2019-05-09T04:19:27.660Z,8.20
2019-05-09T04:21:57.647Z,8.20
2019-05-09T04:24:23.367Z,8.40
2019-05-09T04:27:07.675Z,8.50
2019-05-09T04:29:33.416Z,8.50
2019-05-09T04:32:00.972Z,8.50
2019-05-09T04:34:28.528Z,8.50
2019-05-09T04:36:57.684Z,8.50
2019-05-09T04:39:23.993Z,8.60
2019-05-09T04:41:55.001Z,8.70
2019-05-09T04:44:31.743Z,8.90
2019-05-09T04:47:03.331Z,8.80
2019-05-09T04:49:29.673Z,8.70
2019-05-09T04:51:55.540Z,8.70
2019-05-09T04:54:23.112Z,8.80
2019-05-09T04:56:53.649Z,8.90
2019-05-09T04:59:18.290Z,9.00
2019-05-09T05:01:47.733Z,9.10
2019-05-09T05:04:13.480Z,9.20
2019-05-09T05:06:41.808Z,9.60
2019-05-09T05:09:09.371Z,9.60
2019-05-09T05:11:38.367Z,9.90
2019-05-09T05:14:04.539Z,10.10
2019-05-09T05:16:32.113Z,10.00
2019-05-09T05:18:59.680Z,10.00
2019-05-09T05:21:28.606Z,10.00
2019-05-09T05:24:10.517Z,10.10
2019-05-09T05:26:38.204Z,10.20
2019-05-09T05:29:05.710Z,10.40
2019-05-09T05:31:33.276Z,10.50
2019-05-09T05:34:10.759Z,10.80
2019-05-09T05:36:38.447Z,10.90
2019-05-09T05:39:07.530Z,11.00
2019-05-09T05:41:33.562Z,11.00
2019-05-09T05:44:01.900Z,11.10
2019-05-09T05:49:27.831Z,11.20
2019-05-09T05:51:57.499Z,11.20
2019-05-09T05:54:22.673Z,11.20
2019-05-09T05:56:52.867Z,11.20
2019-05-09T05:59:20.424Z,11.30
2019-05-09T06:01:48.058Z,11.20
2019-05-09T06:04:18.322Z,11.30
2019-05-09T06:06:44.014Z,11.60
2019-05-09T06:09:11.592Z,11.60
2019-05-09T06:11:39.160Z,11.80
2019-05-09T06:14:11.109Z,12.00
2019-05-09T06:16:34.355Z,12.20
2019-05-09T06:19:01.924Z,12.30
2019-05-09T06:21:29.488Z,12.50
2019-05-09T06:23:58.529Z,12.60
2019-05-09T06:26:25.635Z,12.60
2019-05-09T06:28:53.200Z,12.60
2019-05-09T06:31:20.774Z,12.40
2019-05-09T06:33:53.356Z,12.40
2019-05-09T06:36:18.668Z,12.50
2019-05-09T06:38:44.161Z,12.30
2019-05-09T06:41:12.236Z,12.30
2019-05-09T06:43:39.634Z,12.20
2019-05-09T06:46:18.313Z,12.30
2019-05-09T06:48:47.826Z,12.30
2019-05-09T06:51:12.991Z,12.30
2019-05-09T06:53:41.320Z,11.90
2019-05-09T06:56:09.881Z,11.90
2019-05-09T06:58:38.397Z,11.70
2019-05-09T07:04:15.835Z,11.40
2019-05-09T07:06:45.322Z,11.20
2019-05-09T07:09:14.567Z,11.30
2019-05-09T07:11:42.128Z,11.30
2019-05-09T07:14:31.840Z,11.40
2019-05-09T07:16:55.081Z,11.50
2019-05-09T07:19:22.654Z,11.60
2019-05-09T07:21:57.991Z,11.70
2019-05-09T07:24:24.464Z,11.80
2019-05-09T07:26:52.028Z,11.60
2019-05-09T07:29:19.593Z,11.70
2019-05-09T07:31:50.710Z,11.90
2019-05-09T07:34:18.896Z,11.90
2019-05-09T07:36:47.626Z,12.10
2019-05-09T07:39:14.071Z,12.20
2019-05-09T07:41:44.652Z,12.20
2019-05-09T07:44:12.215Z,11.90
2019-05-09T07:46:39.782Z,11.70
2019-05-09T07:49:08.634Z,11.60
2019-05-09T07:51:37.338Z,11.90
2019-05-09T07:54:20.087Z,11.90
2019-05-09T07:56:30.971Z,12.10
2019-05-09T07:58:58.722Z,12.40
2019-05-09T08:01:28.332Z,12.50
2019-05-09T08:03:58.163Z,12.40
2019-05-09T08:06:23.330Z,12.50
2019-05-09T08:08:50.909Z,12.60
2019-05-09T08:11:18.476Z,12.60
2019-05-09T08:13:48.565Z,12.80
2019-05-09T08:16:15.193Z,13.20
2019-05-09T08:18:42.753Z,13.20
2019-05-09T08:21:10.315Z,13.40
2019-05-09T08:23:38.144Z,13.70
2019-05-09T08:26:05.512Z,14.10
2019-05-09T08:28:33.085Z,14.40
2019-05-09T08:31:00.657Z,14.40
2019-05-09T08:33:28.842Z,14.20
2019-05-09T08:35:58.492Z,14.10
2019-05-09T08:38:24.384Z,13.90
2019-05-09T08:40:51.961Z,13.80
2019-05-09T08:43:21.478Z,13.80
2019-05-09T08:45:49.049Z,13.90
2019-05-09T08:48:18.414Z,14.00
2019-05-09T08:50:50.172Z,13.70
2019-05-09T08:53:18.813Z,13.90
2019-05-09T08:55:47.505Z,14.10
2019-05-09T08:58:13.918Z,14.10
2019-05-09T09:00:42.282Z,14.00
2019-05-09T09:03:09.851Z,14.00
2019-05-09T09:05:38.094Z,14.20
2019-05-09T09:08:05.034Z,14.30
2019-05-09T09:10:32.602Z,14.40
2019-05-09T09:13:00.165Z,14.30
2019-05-09T09:15:50.166Z,14.40
2019-05-09T09:17:57.676Z,14.30
2019-05-09T09:20:22.961Z,14.20
2019-05-09T09:22:50.525Z,14.30
2019-05-09T09:25:18.549Z,14.10
2019-05-09T09:27:48.534Z,13.90
2019-05-09T09:30:20.811Z,14.00
2019-05-09T09:32:40.973Z,14.00
2019-05-09T09:35:08.548Z,14.00
2019-05-09T09:37:47.839Z,14.30
2019-05-09T09:40:03.793Z,14.50
2019-05-09T09:42:31.353Z,14.70
2019-05-09T09:44:58.921Z,15.00
2019-05-09T09:47:28.559Z,15.30
2019-05-09T09:49:55.081Z,15.30
2019-05-09T09:52:21.717Z,14.90
2019-05-09T09:54:50.224Z,15.00
2019-05-09T09:57:19.036Z,15.10
2019-05-09T09:59:48.346Z,15.40
2019-05-09T10:02:13.980Z,15.50
2019-05-09T10:04:41.565Z,15.30
2019-05-09T10:07:10.110Z,15.10
2019-05-09T10:09:38.640Z,14.80
2019-05-09T10:12:08.852Z,15.00
2019-05-09T10:14:34.701Z,14.80
2019-05-09T10:17:10.383Z,14.80
2019-05-09T10:19:39.168Z,14.60
2019-05-09T10:22:09.348Z,14.70
2019-05-09T10:24:36.908Z,14.50
2019-05-09T10:27:08.358Z,14.80
2019-05-09T10:29:32.933Z,14.80
2019-05-09T10:32:00.502Z,14.80
2019-05-09T10:34:28.778Z,14.50
2019-05-09T10:36:55.679Z,14.40
2019-05-09T10:39:24.167Z,14.30
2019-05-09T10:41:52.502Z,14.00
2019-05-09T10:44:22.996Z,13.90
2019-05-09T10:46:57.082Z,14.10
2019-05-09T10:49:18.179Z,14.30
2019-05-09T10:51:48.385Z,14.60
2019-05-09T10:54:14.111Z,14.60
2019-05-09T10:56:42.448Z,14.90
2019-05-09T10:59:10.735Z,14.90
2019-05-09T11:01:38.483Z,15.30
2019-05-09T11:04:08.135Z,15.10
2019-05-09T11:06:33.520Z,15.40
2019-05-09T11:09:02.057Z,15.30
2019-05-09T11:11:29.667Z,15.20
2019-05-09T11:13:58.842Z,15.10
2019-05-09T11:16:39.578Z,14.90
2019-05-09T11:18:54.770Z,15.00
2019-05-09T11:21:22.330Z,15.00
2019-05-09T11:23:49.933Z,14.60
2019-05-09T11:26:18.107Z,14.40
2019-05-09T11:28:45.108Z,14.40
2019-05-09T11:31:14.775Z,14.20
2019-05-09T11:33:42.180Z,14.10
2019-05-09T11:36:09.942Z,14.30
2019-05-09T11:38:43.490Z,14.90
2019-05-09T11:41:08.174Z,14.70
2019-05-09T11:43:33.743Z,15.30
2019-05-09T11:46:01.315Z,15.60
2019-05-09T11:48:30.799Z,15.60
2019-05-09T11:50:58.919Z,15.00
2019-05-09T11:53:28.790Z,14.80
2019-05-09T11:55:57.816Z,14.10
2019-05-09T11:58:23.388Z,13.70
2019-05-09T12:00:50.957Z,13.40
2019-05-09T12:03:18.880Z,13.20
2019-05-09T12:05:47.667Z,13.30
2019-05-09T12:08:13.756Z,13.40
2019-05-09T12:10:41.323Z,13.30
2019-05-09T12:13:09.827Z,13.10
2019-05-09T12:15:39.028Z,13.10
2019-05-09T12:18:10.939Z,13.50
2019-05-09T12:20:33.568Z,14.00
2019-05-09T12:23:01.133Z,14.20
2019-05-09T12:25:28.706Z,14.30
2019-05-09T12:27:58.642Z,14.50
2019-05-09T12:30:28.281Z,14.90
2019-05-09T12:32:53.462Z,15.10
2019-05-09T12:35:21.032Z,15.20
2019-05-09T12:37:48.607Z,14.80
2019-05-09T12:40:19.819Z,14.20
2019-05-09T12:42:44.818Z,14.00
2019-05-09T12:45:12.396Z,14.00
2019-05-09T12:47:41.931Z,13.70
2019-05-09T12:50:10.252Z,13.50
2019-05-09T12:52:39.184Z,13.50
2019-05-09T12:55:07.985Z,13.40
2019-05-09T12:57:33.055Z,13.40
2019-05-09T13:00:00.715Z,13.50
2019-05-09T13:02:28.252Z,13.70
2019-05-09T13:04:55.819Z,13.90
2019-05-09T13:07:23.424Z,13.60
2019-05-09T13:09:52.791Z,13.60
2019-05-09T13:12:18.724Z,13.50
2019-05-09T13:14:48.430Z,13.50
2019-05-09T13:17:19.335Z,13.70
2019-05-09T13:19:47.942Z,13.70
2019-05-09T13:22:14.516Z,13.80
2019-05-09T13:24:42.078Z,13.60
2019-05-09T13:27:09.644Z,13.70
2019-05-09T13:29:38.161Z,13.70
2019-05-09T13:32:05.584Z,13.40
2019-05-09T13:34:33.200Z,13.40
2019-05-09T13:37:00.770Z,13.30
2019-05-09T13:39:28.351Z,13.00
2019-05-09T13:41:58.069Z,12.80
2019-05-09T13:44:23.540Z,12.60
2019-05-09T13:46:51.143Z,12.60
2019-05-09T13:49:19.471Z,12.60
2019-05-09T13:51:57.565Z,12.40
2019-05-09T13:54:18.534Z,12.20
2019-05-09T13:56:45.071Z,11.90
2019-05-09T13:59:12.644Z,11.90
2019-05-09T14:01:40.214Z,12.20
2019-05-09T14:04:08.197Z,12.40
2019-05-09T14:06:38.441Z,12.40
2019-05-09T14:09:03.071Z,12.30
2019-05-09T14:11:31.629Z,12.30
2019-05-09T14:13:59.191Z,12.30
2019-05-09T14:16:28.728Z,12.30
2019-05-09T14:18:55.786Z,12.30
2019-05-09T14:21:24.570Z,12.40
2019-05-09T14:24:10.125Z,12.40
2019-05-09T14:26:19.368Z,12.50
2019-05-09T14:28:49.018Z,12.70
2019-05-09T14:31:14.545Z,12.80
2019-05-09T14:33:42.104Z,12.80
2019-05-09T14:36:09.664Z,12.90
2019-05-09T14:38:39.277Z,12.90
2019-05-09T14:41:07.786Z,12.90
2019-05-09T14:43:34.181Z,12.90
2019-05-09T14:46:01.745Z,13.00
2019-05-09T14:48:29.308Z,12.90
2019-05-09T14:50:58.304Z,12.90
2019-05-09T14:53:24.492Z,13.00
2019-05-09T14:55:52.058Z,13.20
2019-05-09T14:58:20.633Z,13.50
2019-05-09T15:00:48.204Z,13.60
2019-05-09T15:03:15.765Z,13.90
2019-05-09T15:05:43.339Z,14.40
2019-05-09T15:08:10.910Z,14.10
2019-05-09T15:10:39.487Z,13.90
2019-05-09T15:13:07.812Z,13.70
2019-05-09T15:15:34.668Z,13.60
2019-05-09T15:18:02.235Z,13.60
2019-05-09T15:20:29.814Z,13.50
2019-05-09T15:22:58.753Z,13.70
2019-05-09T15:25:24.988Z,13.70
2019-05-09T15:27:52.548Z,13.90
2019-05-09T15:30:20.109Z,14.30
2019-05-09T15:32:47.668Z,14.30
2019-05-09T15:35:18.305Z,14.20
2019-05-09T15:37:43.833Z,14.10
2019-05-09T15:40:13.299Z,14.60
2019-05-09T15:42:40.866Z,16.70
2019-05-09T15:45:08.430Z,19.00
2019-05-09T15:47:37.867Z,19.30
2019-05-09T15:50:16.610Z,17.70
2019-05-09T15:52:34.672Z,16.30
2019-05-09T15:55:02.241Z,16.00
2019-05-09T15:57:29.820Z,15.50
2019-05-09T15:59:58.762Z,14.90
2019-05-09T16:02:28.053Z,14.80
2019-05-09T16:04:52.629Z,16.00
2019-05-09T16:07:20.193Z,15.40
2019-05-09T16:09:48.343Z,14.70
2019-05-09T16:12:18.301Z,14.80
2019-05-09T16:14:45.128Z,15.60
2019-05-09T16:17:12.704Z,15.40
2019-05-09T16:19:40.273Z,15.00
2019-05-09T16:22:09.317Z,14.50
2019-05-09T16:24:38.078Z,14.30
2019-05-09T16:27:04.983Z,14.00
2019-05-09T16:29:32.595Z,13.70
2019-05-09T16:32:00.151Z,13.70
2019-05-09T16:34:28.283Z,13.60
2019-05-09T16:36:55.404Z,13.70
2019-05-09T16:39:22.968Z,14.00
2019-05-09T16:41:50.537Z,14.40
2019-05-09T16:44:18.532Z,14.50
2019-05-09T16:46:48.502Z,14.00
2019-05-09T16:49:17.547Z,13.80
2019-05-09T16:51:43.229Z,13.60
2019-05-09T16:54:10.792Z,13.50
2019-05-09T16:56:38.396Z,13.50
2019-05-09T16:59:08.449Z,13.50
2019-05-09T17:01:35.519Z,13.40
2019-05-09T17:04:04.998Z,13.40
2019-05-09T17:06:32.559Z,13.40
2019-05-09T17:09:00.122Z,13.50
2019-05-09T17:11:27.887Z,13.40
2019-05-09T17:14:01.226Z,13.30
2019-05-09T17:16:28.923Z,13.30
2019-05-09T17:18:58.199Z,13.20
2019-05-09T17:21:28.076Z,13.30
2019-05-09T17:23:54.299Z,13.30
2019-05-09T17:26:21.863Z,13.30
2019-05-09T17:28:49.428Z,13.40
2019-05-09T17:31:18.054Z,13.40
2019-05-09T17:33:45.528Z,13.30
2019-05-09T17:36:13.093Z,13.20
2019-05-09T17:38:40.684Z,13.10
2019-05-09T17:41:10.200Z,13.10
2019-05-09T17:43:38.547Z,13.00
2019-05-09T17:46:07.633Z,13.00
2019-05-09T17:48:33.736Z,12.90
2019-05-09T17:51:01.309Z,12.90
2019-05-09T17:53:32.789Z,12.90
2019-05-09T17:55:58.673Z,12.80
2019-05-09T17:58:32.834Z,12.70
2019-05-09T18:00:53.652Z,12.80
2019-05-09T18:03:21.238Z,12.80
2019-05-09T18:05:48.843Z,12.80
2019-05-09T18:08:18.854Z,12.80
2019-05-09T18:10:48.256Z,12.90
2019-05-09T18:13:13.571Z,12.90
2019-05-09T18:15:41.318Z,12.90
2019-05-09T18:18:09.647Z,12.70
2019-05-09T18:20:39.105Z,12.70
2019-05-09T18:23:08.173Z,12.60
2019-05-09T18:25:34.352Z,12.60
2019-05-09T18:28:01.927Z,12.40
2019-05-09T18:30:29.495Z,12.40
2019-05-09T18:32:57.949Z,12.40
2019-05-09T18:35:27.817Z,12.40
2019-05-09T18:37:53.664Z,12.40
2019-05-09T18:40:21.231Z,12.40
2019-05-09T18:42:48.792Z,12.50
2019-05-09T18:45:17.552Z,12.50
2019-05-09T18:47:43.965Z,12.50
2019-05-09T18:50:11.550Z,12.50
2019-05-09T18:52:39.115Z,12.40
2019-05-09T18:55:09.503Z,12.30
2019-05-09T18:57:37.610Z,12.20
2019-05-09T19:00:06.145Z,12.10
2019-05-09T19:02:35.680Z,11.90
2019-05-09T19:05:03.239Z,11.90
2019-05-09T19:07:30.812Z,11.90
2019-05-09T19:09:58.384Z,11.80
2019-05-09T19:12:26.900Z,11.80
2019-05-09T19:14:56.155Z,11.80
2019-05-09T19:20:28.175Z,11.80
2019-05-09T19:22:55.744Z,11.70
2019-05-09T19:25:24.076Z,11.80
2019-05-09T19:27:51.654Z,11.80
2019-05-09T19:30:21.151Z,11.70
2019-05-09T19:32:48.738Z,11.70
2019-05-09T19:35:16.747Z,11.80
2019-05-09T19:37:44.335Z,11.80
2019-05-09T19:40:12.478Z,11.60
2019-05-09T19:42:41.159Z,11.70
2019-05-09T19:45:08.738Z,11.70
2019-05-09T19:47:36.305Z,11.70
2019-05-09T19:50:04.850Z,11.70
2019-05-09T19:52:38.179Z,11.70
2019-05-09T19:55:00.074Z,11.80
2019-05-09T19:57:27.635Z,11.70
2019-05-09T19:59:55.196Z,11.80
2019-05-09T20:02:24.732Z,11.80
2019-05-09T20:04:52.314Z,11.80
2019-05-09T20:07:23.484Z,11.90
2019-05-09T20:09:51.072Z,11.90
2019-05-09T20:12:33.527Z,11.90
2019-05-09T20:15:03.033Z,11.90
2019-05-09T20:17:30.599Z,12.00
2019-05-09T20:19:58.178Z,11.90
2019-05-09T20:22:26.711Z,11.90
2019-05-09T20:24:54.277Z,12.00
2019-05-09T20:27:21.857Z,12.00
2019-05-09T20:29:51.393Z,12.00
2019-05-09T20:32:18.970Z,12.00
2019-05-09T20:34:46.550Z,11.90
2019-05-09T20:37:14.128Z,11.90
2019-05-09T20:39:41.696Z,11.90
2019-05-09T20:42:09.264Z,11.90
2019-05-09T20:44:36.841Z,12.00
2019-05-09T20:47:04.412Z,11.90
2019-05-09T20:49:31.984Z,11.90
2019-05-09T20:52:00.317Z,11.80
2019-05-09T20:54:28.091Z,11.80
2019-05-09T20:56:55.702Z,11.90
2019-05-09T20:59:23.268Z,11.90
2019-05-09T21:01:50.840Z,11.90
2019-05-09T21:04:18.403Z,11.90
2019-05-09T21:06:45.971Z,11.90
2019-05-09T21:09:13.535Z,11.90
2019-05-09T21:11:42.026Z,12.00
2019-05-09T21:14:09.596Z,11.90
2019-05-09T21:16:37.993Z,11.90
2019-05-09T21:19:06.323Z,11.90
2019-05-09T21:21:33.893Z,11.90
2019-05-09T21:24:01.460Z,12.00
2019-05-09T21:26:29.023Z,12.00
2019-05-09T21:28:56.591Z,12.00
2019-05-09T21:31:24.161Z,12.00
2019-05-09T21:33:51.728Z,12.00
2019-05-09T21:36:19.297Z,11.90
2019-05-09T21:38:46.869Z,11.90
2019-05-09T21:41:14.441Z,11.80
2019-05-09T21:43:42.008Z,11.90
2019-05-09T21:46:09.579Z,11.80
2019-05-09T21:48:38.625Z,11.90
2019-05-09T21:51:04.782Z,11.80
2019-05-09T21:53:40.344Z,11.80
2019-05-09T21:56:00.946Z,11.70
2019-05-09T21:58:29.363Z,11.70
2019-05-09T22:00:56.928Z,11.70
2019-05-09T22:03:26.420Z,11.80
2019-05-09T22:05:53.988Z,11.80
2019-05-09T22:08:21.547Z,11.80
2019-05-09T22:10:49.124Z,11.90
2019-05-09T22:13:16.724Z,11.80
2019-05-09T22:15:44.327Z,11.80
2019-05-09T22:18:11.893Z,11.80
2019-05-09T22:20:39.464Z,11.90
2019-05-09T22:23:07.046Z,11.90
2019-05-09T22:25:34.622Z,11.80
2019-05-09T22:28:02.203Z,11.90
2019-05-09T22:30:29.863Z,11.90
2019-05-09T22:32:57.431Z,11.80
2019-05-09T22:35:25.065Z,11.80
2019-05-09T22:37:52.619Z,11.80
2019-05-09T22:40:20.199Z,11.90
2019-05-09T22:42:47.775Z,11.90
2019-05-09T22:45:15.350Z,11.80
2019-05-09T22:47:42.921Z,11.80
2019-05-09T22:50:10.491Z,11.70
2019-05-09T22:52:38.056Z,11.70
2019-05-09T22:55:05.620Z,11.60
2019-05-09T22:57:33.187Z,11.60
2019-05-09T23:00:00.775Z,11.60
2019-05-09T23:02:32.964Z,11.50
2019-05-09T23:05:00.541Z,11.50
2019-05-09T23:07:28.108Z,11.40
2019-05-09T23:09:55.674Z,11.50
2019-05-09T23:12:25.140Z,11.50
2019-05-09T23:14:52.699Z,11.60
2019-05-09T23:17:20.268Z,11.40
2019-05-09T23:19:48.816Z,11.30
2019-05-09T23:22:16.382Z,11.20
2019-05-09T23:24:44.793Z,11.00
2019-05-09T23:27:12.489Z,10.90
2019-05-09T23:29:40.092Z,10.70
2019-05-09T23:32:07.669Z,10.60
2019-05-09T23:34:35.999Z,10.50
2019-05-09T23:37:03.568Z,10.50
2019-05-09T23:39:31.142Z,10.40
2019-05-09T23:41:59.669Z,10.30
2019-05-09T23:44:29.155Z,10.40
2019-05-09T23:46:56.728Z,10.40
2019-05-09T23:49:24.287Z,10.40
2019-05-09T23:51:51.892Z,10.50
2019-05-09T23:54:25.861Z,10.50
2019-05-09T23:56:59.010Z,10.50
2019-05-09T23:59:32.292Z,10.90
